sensor_id;sensor_type;location;lat;lon;timestamp;P1;durP1;ratioP1;P2;durP2;ratioP2
69956;SDS011;57283;54.816;9.482;2022-08-18T00:02:07;33.50;;;21.73;;
69956;SDS011;57283;54.816;9.482;2022-08-18T00:04:38;37.22;;;21.02;;
69956;SDS011;57283;54.816;9.482;2022-08-18T00:07:15;35.70;;;20.83;;
69956;SDS011;57283;54.816;9.482;2022-08-18T00:09:43;37.60;;;22.05;;
69956;SDS011;57283;54.816;9.482;2022-08-18T00:12:13;34.15;;;20.98;;
69956;SDS011;57283;54.816;9.482;2022-08-18T00:14:42;34.23;;;20.33;;
69956;SDS011;57283;54.816;9.482;2022-08-18T00:17:09;36.83;;;20.92;;
69956;SDS011;57283;54.816;9.482;2022-08-18T00:19:38;35.35;;;20.70;;
69956;SDS011;57283;54.816;9.482;2022-08-18T00:22:14;33.90;;;20.23;;
69956;SDS011;57283;54.816;9.482;2022-08-18T00:24:42;33.88;;;19.15;;
69956;SDS011;57283;54.816;9.482;2022-08-18T00:27:14;26.27;;;17.53;;
69956;SDS011;57283;54.816;9.482;2022-08-18T00:29:47;25.00;;;16.02;;
69956;SDS011;57283;54.816;9.482;2022-08-18T00:32:15;18.85;;;12.43;;
69956;SDS011;57283;54.816;9.482;2022-08-18T00:34:44;18.35;;;11.07;;
69956;SDS011;57283;54.816;9.482;2022-08-18T00:37:12;15.73;;;9.07;;
69956;SDS011;57283;54.816;9.482;2022-08-18T00:39:39;16.07;;;9.80;;
69956;SDS011;57283;54.816;9.482;2022-08-18T00:42:14;18.60;;;8.82;;
69956;SDS011;57283;54.816;9.482;2022-08-18T00:44:56;16.67;;;8.40;;
69956;SDS011;57283;54.816;9.482;2022-08-18T00:47:24;14.30;;;8.48;;
69956;SDS011;57283;54.816;9.482;2022-08-18T00:50:10;17.50;;;8.63;;
69956;SDS011;57283;54.816;9.482;2022-08-18T00:52:41;15.80;;;8.17;;
69956;SDS011;57283;54.816;9.482;2022-08-18T00:55:08;13.98;;;7.75;;
69956;SDS011;57283;54.816;9.482;2022-08-18T00:57:36;12.77;;;7.78;;
69956;SDS011;57283;54.816;9.482;2022-08-18T01:00:05;15.70;;;7.78;;
69956;SDS011;57283;54.816;9.482;2022-08-18T01:02:39;14.13;;;7.65;;
69956;SDS011;57283;54.816;9.482;2022-08-18T01:05:09;14.77;;;6.93;;
69956;SDS011;57283;54.816;9.482;2022-08-18T01:07:41;11.80;;;6.63;;
69956;SDS011;57283;54.816;9.482;2022-08-18T01:10:10;12.27;;;6.15;;
69956;SDS011;57283;54.816;9.482;2022-08-18T01:12:41;10.15;;;5.90;;
69956;SDS011;57283;54.816;9.482;2022-08-18T01:15:12;11.65;;;6.18;;
69956;SDS011;57283;54.816;9.482;2022-08-18T01:17:55;7.77;;;4.90;;
69956;SDS011;57283;54.816;9.482;2022-08-18T01:20:41;8.77;;;4.85;;
69956;SDS011;57283;54.816;9.482;2022-08-18T01:23:43;8.30;;;4.70;;
69956;SDS011;57283;54.816;9.482;2022-08-18T01:26:12;10.60;;;5.10;;
69956;SDS011;57283;54.816;9.482;2022-08-18T01:28:40;11.23;;;5.60;;
69956;SDS011;57283;54.816;9.482;2022-08-18T01:31:08;12.10;;;5.83;;
69956;SDS011;57283;54.816;9.482;2022-08-18T01:33:37;10.02;;;5.70;;
69956;SDS011;57283;54.816;9.482;2022-08-18T01:36:09;9.75;;;6.22;;
69956;SDS011;57283;54.816;9.482;2022-08-18T01:38:39;12.73;;;6.28;;
69956;SDS011;57283;54.816;9.482;2022-08-18T01:41:08;10.23;;;6.53;;
69956;SDS011;57283;54.816;9.482;2022-08-18T01:43:53;11.60;;;6.47;;
69956;SDS011;57283;54.816;9.482;2022-08-18T01:46:21;12.98;;;6.75;;
69956;SDS011;57283;54.816;9.482;2022-08-18T01:48:49;11.50;;;6.90;;
69956;SDS011;57283;54.816;9.482;2022-08-18T01:51:17;12.35;;;7.47;;
69956;SDS011;57283;54.816;9.482;2022-08-18T01:54:06;12.48;;;8.63;;
69956;SDS011;57283;54.816;9.482;2022-08-18T01:56:35;13.13;;;8.23;;
69956;SDS011;57283;54.816;9.482;2022-08-18T01:59:03;13.13;;;8.30;;
69956;SDS011;57283;54.816;9.482;2022-08-18T02:01:31;15.85;;;9.57;;
69956;SDS011;57283;54.816;9.482;2022-08-18T02:04:13;15.00;;;11.43;;
69956;SDS011;57283;54.816;9.482;2022-08-18T02:07:01;17.42;;;13.45;;
69956;SDS011;57283;54.816;9.482;2022-08-18T02:09:29;21.93;;;15.40;;
69956;SDS011;57283;54.816;9.482;2022-08-18T02:11:58;27.17;;;17.80;;
69956;SDS011;57283;54.816;9.482;2022-08-18T02:14:26;25.08;;;18.90;;
69956;SDS011;57283;54.816;9.482;2022-08-18T02:16:56;24.58;;;18.65;;
69956;SDS011;57283;54.816;9.482;2022-08-18T02:19:27;23.63;;;19.52;;
69956;SDS011;57283;54.816;9.482;2022-08-18T02:21:58;25.50;;;18.97;;
69956;SDS011;57283;54.816;9.482;2022-08-18T02:24:26;27.00;;;20.30;;
69956;SDS011;57283;54.816;9.482;2022-08-18T02:26:53;27.20;;;19.55;;
69956;SDS011;57283;54.816;9.482;2022-08-18T02:29:23;27.25;;;19.15;;
69956;SDS011;57283;54.816;9.482;2022-08-18T02:31:50;28.77;;;18.55;;
69956;SDS011;57283;54.816;9.482;2022-08-18T02:34:18;26.00;;;17.93;;
69956;SDS011;57283;54.816;9.482;2022-08-18T02:36:45;24.20;;;18.05;;
69956;SDS011;57283;54.816;9.482;2022-08-18T02:39:13;24.80;;;18.58;;
69956;SDS011;57283;54.816;9.482;2022-08-18T02:41:41;22.65;;;17.75;;
69956;SDS011;57283;54.816;9.482;2022-08-18T02:44:08;24.98;;;18.55;;
69956;SDS011;57283;54.816;9.482;2022-08-18T02:46:37;26.27;;;18.30;;
69956;SDS011;57283;54.816;9.482;2022-08-18T02:49:05;24.08;;;18.23;;
69956;SDS011;57283;54.816;9.482;2022-08-18T02:51:33;25.13;;;17.98;;
69956;SDS011;57283;54.816;9.482;2022-08-18T02:54:01;26.25;;;18.40;;
69956;SDS011;57283;54.816;9.482;2022-08-18T02:56:34;26.13;;;19.17;;
69956;SDS011;57283;54.816;9.482;2022-08-18T02:59:08;23.37;;;18.47;;
69956;SDS011;57283;54.816;9.482;2022-08-18T03:01:38;25.88;;;17.98;;
69956;SDS011;57283;54.816;9.482;2022-08-18T03:04:07;23.38;;;18.40;;
69956;SDS011;57283;54.816;9.482;2022-08-18T03:06:35;23.13;;;18.98;;
69956;SDS011;57283;54.816;9.482;2022-08-18T03:09:04;23.80;;;17.90;;
69956;SDS011;57283;54.816;9.482;2022-08-18T03:11:32;25.63;;;18.53;;
69956;SDS011;57283;54.816;9.482;2022-08-18T03:14:00;23.00;;;18.17;;
69956;SDS011;57283;54.816;9.482;2022-08-18T03:16:28;24.10;;;18.30;;
69956;SDS011;57283;54.816;9.482;2022-08-18T03:18:59;25.95;;;17.88;;
69956;SDS011;57283;54.816;9.482;2022-08-18T03:21:28;26.00;;;18.73;;
69956;SDS011;57283;54.816;9.482;2022-08-18T03:23:56;23.47;;;17.47;;
69956;SDS011;57283;54.816;9.482;2022-08-18T03:26:28;25.45;;;18.23;;
69956;SDS011;57283;54.816;9.482;2022-08-18T03:28:56;24.35;;;16.75;;
69956;SDS011;57283;54.816;9.482;2022-08-18T03:31:26;26.73;;;17.95;;
69956;SDS011;57283;54.816;9.482;2022-08-18T03:33:54;23.90;;;17.52;;
69956;SDS011;57283;54.816;9.482;2022-08-18T03:36:27;20.07;;;16.03;;
69956;SDS011;57283;54.816;9.482;2022-08-18T03:38:55;19.80;;;16.05;;
69956;SDS011;57283;54.816;9.482;2022-08-18T03:41:24;21.05;;;16.50;;
69956;SDS011;57283;54.816;9.482;2022-08-18T03:44:13;21.25;;;15.68;;
69956;SDS011;57283;54.816;9.482;2022-08-18T03:46:41;21.15;;;16.00;;
69956;SDS011;57283;54.816;9.482;2022-08-18T03:49:09;21.70;;;15.80;;
69956;SDS011;57283;54.816;9.482;2022-08-18T03:51:39;20.40;;;15.93;;
69956;SDS011;57283;54.816;9.482;2022-08-18T03:54:08;20.35;;;16.23;;
69956;SDS011;57283;54.816;9.482;2022-08-18T03:56:38;20.63;;;16.48;;
69956;SDS011;57283;54.816;9.482;2022-08-18T03:59:09;23.55;;;15.98;;
69956;SDS011;57283;54.816;9.482;2022-08-18T04:01:39;21.07;;;15.37;;
69956;SDS011;57283;54.816;9.482;2022-08-18T04:04:07;23.42;;;15.77;;
69956;SDS011;57283;54.816;9.482;2022-08-18T04:06:36;21.15;;;15.32;;
69956;SDS011;57283;54.816;9.482;2022-08-18T04:09:07;21.48;;;15.02;;
69956;SDS011;57283;54.816;9.482;2022-08-18T04:11:36;21.30;;;15.45;;
69956;SDS011;57283;54.816;9.482;2022-08-18T04:14:04;20.23;;;14.73;;
69956;SDS011;57283;54.816;9.482;2022-08-18T04:16:32;22.10;;;15.35;;
69956;SDS011;57283;54.816;9.482;2022-08-18T04:19:00;22.02;;;15.43;;
69956;SDS011;57283;54.816;9.482;2022-08-18T04:21:29;19.65;;;14.50;;
69956;SDS011;57283;54.816;9.482;2022-08-18T04:23:58;20.58;;;15.40;;
69956;SDS011;57283;54.816;9.482;2022-08-18T04:26:29;19.93;;;15.00;;
69956;SDS011;57283;54.816;9.482;2022-08-18T04:28:57;19.15;;;15.00;;
69956;SDS011;57283;54.816;9.482;2022-08-18T04:31:27;20.35;;;14.38;;
69956;SDS011;57283;54.816;9.482;2022-08-18T04:33:55;21.33;;;15.02;;
69956;SDS011;57283;54.816;9.482;2022-08-18T04:36:23;20.80;;;16.08;;
69956;SDS011;57283;54.816;9.482;2022-08-18T04:38:51;20.47;;;15.10;;
69956;SDS011;57283;54.816;9.482;2022-08-18T04:41:22;21.40;;;15.15;;
69956;SDS011;57283;54.816;9.482;2022-08-18T04:43:54;20.30;;;16.15;;
69956;SDS011;57283;54.816;9.482;2022-08-18T04:46:23;19.90;;;15.05;;
69956;SDS011;57283;54.816;9.482;2022-08-18T04:48:51;20.02;;;15.70;;
69956;SDS011;57283;54.816;9.482;2022-08-18T04:51:24;22.43;;;15.70;;
69956;SDS011;57283;54.816;9.482;2022-08-18T04:54:13;22.45;;;15.93;;
69956;SDS011;57283;54.816;9.482;2022-08-18T04:56:41;18.98;;;16.00;;
69956;SDS011;57283;54.816;9.482;2022-08-18T04:59:11;19.88;;;15.25;;
69956;SDS011;57283;54.816;9.482;2022-08-18T05:01:39;22.50;;;16.20;;
69956;SDS011;57283;54.816;9.482;2022-08-18T05:04:08;22.93;;;15.53;;
69956;SDS011;57283;54.816;9.482;2022-08-18T05:06:39;20.33;;;15.18;;
69956;SDS011;57283;54.816;9.482;2022-08-18T05:09:08;20.10;;;15.77;;
69956;SDS011;57283;54.816;9.482;2022-08-18T05:11:36;18.77;;;15.40;;
69956;SDS011;57283;54.816;9.482;2022-08-18T05:14:05;18.98;;;15.30;;
69956;SDS011;57283;54.816;9.482;2022-08-18T05:16:35;20.07;;;16.00;;
69956;SDS011;57283;54.816;9.482;2022-08-18T05:19:14;23.27;;;15.82;;
69956;SDS011;57283;54.816;9.482;2022-08-18T05:21:44;20.23;;;16.27;;
69956;SDS011;57283;54.816;9.482;2022-08-18T05:24:17;21.05;;;16.50;;
69956;SDS011;57283;54.816;9.482;2022-08-18T05:26:44;20.45;;;16.20;;
69956;SDS011;57283;54.816;9.482;2022-08-18T05:29:12;21.23;;;16.70;;
69956;SDS011;57283;54.816;9.482;2022-08-18T05:31:46;23.38;;;16.48;;
69956;SDS011;57283;54.816;9.482;2022-08-18T05:34:14;22.05;;;16.75;;
69956;SDS011;57283;54.816;9.482;2022-08-18T05:36:50;20.33;;;15.88;;
69956;SDS011;57283;54.816;9.482;2022-08-18T05:39:23;19.58;;;15.90;;
69956;SDS011;57283;54.816;9.482;2022-08-18T05:41:52;21.07;;;15.80;;
69956;SDS011;57283;54.816;9.482;2022-08-18T05:44:21;20.05;;;16.38;;
69956;SDS011;57283;54.816;9.482;2022-08-18T05:46:52;21.85;;;16.55;;
69956;SDS011;57283;54.816;9.482;2022-08-18T05:49:21;18.73;;;15.77;;
69956;SDS011;57283;54.816;9.482;2022-08-18T05:51:51;22.15;;;16.80;;
69956;SDS011;57283;54.816;9.482;2022-08-18T05:54:19;20.60;;;16.43;;
69956;SDS011;57283;54.816;9.482;2022-08-18T05:57:07;19.38;;;16.48;;
69956;SDS011;57283;54.816;9.482;2022-08-18T05:59:37;19.60;;;16.00;;
69956;SDS011;57283;54.816;9.482;2022-08-18T06:02:09;20.27;;;16.00;;
69956;SDS011;57283;54.816;9.482;2022-08-18T06:04:39;18.83;;;15.68;;
69956;SDS011;57283;54.816;9.482;2022-08-18T06:07:09;19.93;;;16.27;;
69956;SDS011;57283;54.816;9.482;2022-08-18T06:09:39;18.80;;;15.40;;
69956;SDS011;57283;54.816;9.482;2022-08-18T06:12:12;18.90;;;16.25;;
69956;SDS011;57283;54.816;9.482;2022-08-18T06:14:42;17.95;;;15.55;;
69956;SDS011;57283;54.816;9.482;2022-08-18T06:17:15;19.33;;;15.85;;
69956;SDS011;57283;54.816;9.482;2022-08-18T06:19:47;20.20;;;15.47;;
69956;SDS011;57283;54.816;9.482;2022-08-18T06:22:21;19.88;;;15.90;;
69956;SDS011;57283;54.816;9.482;2022-08-18T06:24:56;19.85;;;16.65;;
69956;SDS011;57283;54.816;9.482;2022-08-18T06:27:28;21.33;;;16.20;;
69956;SDS011;57283;54.816;9.482;2022-08-18T06:30:03;20.92;;;16.15;;
69956;SDS011;57283;54.816;9.482;2022-08-18T06:32:38;19.07;;;14.53;;
69956;SDS011;57283;54.816;9.482;2022-08-18T06:35:10;19.05;;;14.45;;
69956;SDS011;57283;54.816;9.482;2022-08-18T06:37:41;17.13;;;13.85;;
69956;SDS011;57283;54.816;9.482;2022-08-18T06:40:23;16.95;;;13.20;;
69956;SDS011;57283;54.816;9.482;2022-08-18T06:42:50;18.60;;;13.57;;
69956;SDS011;57283;54.816;9.482;2022-08-18T06:45:21;17.50;;;13.40;;
69956;SDS011;57283;54.816;9.482;2022-08-18T06:48:02;16.77;;;13.25;;
69956;SDS011;57283;54.816;9.482;2022-08-18T06:50:43;17.00;;;13.00;;
69956;SDS011;57283;54.816;9.482;2022-08-18T06:53:12;16.02;;;13.07;;
69956;SDS011;57283;54.816;9.482;2022-08-18T06:55:53;15.80;;;13.05;;
69956;SDS011;57283;54.816;9.482;2022-08-18T06:58:21;15.63;;;12.20;;
69956;SDS011;57283;54.816;9.482;2022-08-18T07:00:55;15.35;;;11.35;;
69956;SDS011;57283;54.816;9.482;2022-08-18T07:03:39;15.13;;;12.25;;
69956;SDS011;57283;54.816;9.482;2022-08-18T07:06:08;15.57;;;11.57;;
69956;SDS011;57283;54.816;9.482;2022-08-18T07:08:37;15.02;;;11.93;;
69956;SDS011;57283;54.816;9.482;2022-08-18T07:11:13;12.47;;;11.10;;
69956;SDS011;57283;54.816;9.482;2022-08-18T07:13:46;12.20;;;10.80;;
69956;SDS011;57283;54.816;9.482;2022-08-18T07:16:34;13.93;;;11.10;;
69956;SDS011;57283;54.816;9.482;2022-08-18T07:19:26;13.82;;;11.07;;
69956;SDS011;57283;54.816;9.482;2022-08-18T07:21:59;13.60;;;11.52;;
69956;SDS011;57283;54.816;9.482;2022-08-18T07:24:28;14.40;;;11.03;;
69956;SDS011;57283;54.816;9.482;2022-08-18T07:26:57;14.43;;;10.93;;
69956;SDS011;57283;54.816;9.482;2022-08-18T07:29:25;14.43;;;12.18;;
69956;SDS011;57283;54.816;9.482;2022-08-18T07:31:54;12.88;;;11.02;;
69956;SDS011;57283;54.816;9.482;2022-08-18T07:34:23;14.52;;;12.13;;
69956;SDS011;57283;54.816;9.482;2022-08-18T07:36:54;12.33;;;10.77;;
69956;SDS011;57283;54.816;9.482;2022-08-18T07:39:25;13.75;;;11.20;;
69956;SDS011;57283;54.816;9.482;2022-08-18T07:41:54;13.05;;;11.13;;
69956;SDS011;57283;54.816;9.482;2022-08-18T07:44:25;14.13;;;11.68;;
69956;SDS011;57283;54.816;9.482;2022-08-18T07:46:55;14.05;;;12.05;;
69956;SDS011;57283;54.816;9.482;2022-08-18T07:49:30;14.53;;;11.93;;
69956;SDS011;57283;54.816;9.482;2022-08-18T07:52:01;14.40;;;12.30;;
69956;SDS011;57283;54.816;9.482;2022-08-18T07:54:39;15.88;;;12.43;;
69956;SDS011;57283;54.816;9.482;2022-08-18T07:57:20;14.77;;;11.82;;
69956;SDS011;57283;54.816;9.482;2022-08-18T07:59:51;15.07;;;12.48;;
69956;SDS011;57283;54.816;9.482;2022-08-18T08:02:25;13.87;;;11.73;;
69956;SDS011;57283;54.816;9.482;2022-08-18T08:05:03;14.90;;;11.82;;
69956;SDS011;57283;54.816;9.482;2022-08-18T08:07:34;13.60;;;12.10;;
69956;SDS011;57283;54.816;9.482;2022-08-18T08:10:15;13.77;;;12.02;;
69956;SDS011;57283;54.816;9.482;2022-08-18T08:12:46;14.32;;;12.20;;
69956;SDS011;57283;54.816;9.482;2022-08-18T08:15:18;15.27;;;11.80;;
69956;SDS011;57283;54.816;9.482;2022-08-18T08:17:53;13.95;;;11.77;;
69956;SDS011;57283;54.816;9.482;2022-08-18T08:20:28;13.00;;;11.70;;
69956;SDS011;57283;54.816;9.482;2022-08-18T08:23:01;13.23;;;11.07;;
69956;SDS011;57283;54.816;9.482;2022-08-18T08:25:33;12.50;;;11.02;;
69956;SDS011;57283;54.816;9.482;2022-08-18T08:28:15;13.37;;;11.70;;
69956;SDS011;57283;54.816;9.482;2022-08-18T08:30:48;13.85;;;11.63;;
69956;SDS011;57283;54.816;9.482;2022-08-18T08:33:22;13.55;;;11.85;;
69956;SDS011;57283;54.816;9.482;2022-08-18T08:35:53;12.88;;;11.55;;
69956;SDS011;57283;54.816;9.482;2022-08-18T08:38:23;13.27;;;11.80;;
69956;SDS011;57283;54.816;9.482;2022-08-18T08:41:09;13.63;;;11.80;;
69956;SDS011;57283;54.816;9.482;2022-08-18T08:43:39;12.95;;;11.48;;
69956;SDS011;57283;54.816;9.482;2022-08-18T08:46:09;13.15;;;11.60;;
69956;SDS011;57283;54.816;9.482;2022-08-18T08:48:39;12.13;;;10.95;;
69956;SDS011;57283;54.816;9.482;2022-08-18T08:51:13;13.90;;;11.13;;
69956;SDS011;57283;54.816;9.482;2022-08-18T08:53:44;11.90;;;10.70;;
69956;SDS011;57283;54.816;9.482;2022-08-18T08:56:13;12.35;;;11.05;;
69956;SDS011;57283;54.816;9.482;2022-08-18T08:58:43;13.27;;;10.63;;
69956;SDS011;57283;54.816;9.482;2022-08-18T09:01:14;11.30;;;9.88;;
69956;SDS011;57283;54.816;9.482;2022-08-18T09:03:46;11.68;;;10.43;;
69956;SDS011;57283;54.816;9.482;2022-08-18T09:06:20;12.00;;;10.30;;
69956;SDS011;57283;54.816;9.482;2022-08-18T09:08:57;11.17;;;9.87;;
69956;SDS011;57283;54.816;9.482;2022-08-18T09:11:34;12.25;;;10.23;;
69956;SDS011;57283;54.816;9.482;2022-08-18T09:14:19;11.82;;;10.57;;
69956;SDS011;57283;54.816;9.482;2022-08-18T09:16:56;12.35;;;11.02;;
69956;SDS011;57283;54.816;9.482;2022-08-18T09:19:33;13.18;;;11.80;;
69956;SDS011;57283;54.816;9.482;2022-08-18T09:22:06;11.90;;;10.67;;
69956;SDS011;57283;54.816;9.482;2022-08-18T09:24:39;13.85;;;10.40;;
69956;SDS011;57283;54.816;9.482;2022-08-18T09:27:11;11.93;;;10.75;;
69956;SDS011;57283;54.816;9.482;2022-08-18T09:29:47;13.85;;;10.55;;
69956;SDS011;57283;54.816;9.482;2022-08-18T09:35:19;11.60;;;10.00;;
69956;SDS011;57283;54.816;9.482;2022-08-18T09:37:53;13.35;;;10.25;;
69956;SDS011;57283;54.816;9.482;2022-08-18T09:40:40;11.98;;;10.68;;
69956;SDS011;57283;54.816;9.482;2022-08-18T09:43:30;12.43;;;10.95;;
69956;SDS011;57283;54.816;9.482;2022-08-18T09:46:03;12.30;;;10.75;;
69956;SDS011;57283;54.816;9.482;2022-08-18T09:48:32;14.07;;;11.07;;
69956;SDS011;57283;54.816;9.482;2022-08-18T09:53:55;12.02;;;9.73;;
69956;SDS011;57283;54.816;9.482;2022-08-18T10:02:07;12.63;;;10.03;;
69956;SDS011;57283;54.816;9.482;2022-08-18T10:04:47;12.10;;;10.40;;
69956;SDS011;57283;54.816;9.482;2022-08-18T10:07:21;12.85;;;10.57;;
69956;SDS011;57283;54.816;9.482;2022-08-18T10:10:00;14.52;;;10.57;;
69956;SDS011;57283;54.816;9.482;2022-08-18T10:13:01;12.52;;;10.38;;
69956;SDS011;57283;54.816;9.482;2022-08-18T10:15:33;12.30;;;10.13;;
69956;SDS011;57283;54.816;9.482;2022-08-18T10:18:11;13.82;;;10.52;;
69956;SDS011;57283;54.816;9.482;2022-08-18T10:20:46;12.60;;;10.68;;
69956;SDS011;57283;54.816;9.482;2022-08-18T10:26:25;12.43;;;10.52;;
69956;SDS011;57283;54.816;9.482;2022-08-18T10:32:16;12.77;;;9.73;;
69956;SDS011;57283;54.816;9.482;2022-08-18T10:34:45;11.77;;;10.02;;
69956;SDS011;57283;54.816;9.482;2022-08-18T10:37:17;10.10;;;9.10;;
69956;SDS011;57283;54.816;9.482;2022-08-18T10:39:51;11.63;;;9.82;;
69956;SDS011;57283;54.816;9.482;2022-08-18T10:42:23;9.73;;;8.73;;
69956;SDS011;57283;54.816;9.482;2022-08-18T10:45:00;13.30;;;9.68;;
69956;SDS011;57283;54.816;9.482;2022-08-18T10:47:32;12.18;;;10.25;;
69956;SDS011;57283;54.816;9.482;2022-08-18T10:49:59;13.73;;;10.20;;
69956;SDS011;57283;54.816;9.482;2022-08-18T10:52:37;13.05;;;10.20;;
69956;SDS011;57283;54.816;9.482;2022-08-18T10:55:25;12.03;;;9.87;;
69956;SDS011;57283;54.816;9.482;2022-08-18T10:58:23;13.25;;;9.90;;
69956;SDS011;57283;54.816;9.482;2022-08-18T11:00:59;9.88;;;8.80;;
69956;SDS011;57283;54.816;9.482;2022-08-18T11:03:34;10.70;;;9.05;;
69956;SDS011;57283;54.816;9.482;2022-08-18T11:06:21;10.73;;;8.80;;
69956;SDS011;57283;54.816;9.482;2022-08-18T11:08:50;10.37;;;8.50;;
69956;SDS011;57283;54.816;9.482;2022-08-18T11:11:24;13.63;;;9.38;;
69956;SDS011;57283;54.816;9.482;2022-08-18T11:14:09;9.82;;;8.82;;
69956;SDS011;57283;54.816;9.482;2022-08-18T11:16:41;9.70;;;8.70;;
69956;SDS011;57283;54.816;9.482;2022-08-18T11:19:12;10.48;;;9.10;;
69956;SDS011;57283;54.816;9.482;2022-08-18T11:21:43;9.67;;;8.67;;
69956;SDS011;57283;54.816;9.482;2022-08-18T11:24:18;10.50;;;9.50;;
69956;SDS011;57283;54.816;9.482;2022-08-18T11:26:47;9.35;;;8.43;;
69956;SDS011;57283;54.816;9.482;2022-08-18T11:29:22;9.88;;;8.98;;
69956;SDS011;57283;54.816;9.482;2022-08-18T11:31:51;9.20;;;8.30;;
69956;SDS011;57283;54.816;9.482;2022-08-18T11:34:28;9.27;;;8.38;;
69956;SDS011;57283;54.816;9.482;2022-08-18T11:36:58;9.45;;;8.55;;
69956;SDS011;57283;54.816;9.482;2022-08-18T11:39:26;9.70;;;8.70;;
69956;SDS011;57283;54.816;9.482;2022-08-18T11:42:03;10.70;;;9.60;;
69956;SDS011;57283;54.816;9.482;2022-08-18T11:44:42;11.43;;;9.53;;
69956;SDS011;57283;54.816;9.482;2022-08-18T11:47:14;10.25;;;9.20;;
69956;SDS011;57283;54.816;9.482;2022-08-18T11:49:53;10.10;;;9.18;;
69956;SDS011;57283;54.816;9.482;2022-08-18T11:52:23;10.23;;;8.68;;
69956;SDS011;57283;54.816;9.482;2022-08-18T11:55:00;9.50;;;8.60;;
69956;SDS011;57283;54.816;9.482;2022-08-18T11:57:48;11.13;;;9.23;;
69956;SDS011;57283;54.816;9.482;2022-08-18T12:00:39;9.97;;;8.97;;
69956;SDS011;57283;54.816;9.482;2022-08-18T12:03:09;10.73;;;9.73;;
69956;SDS011;57283;54.816;9.482;2022-08-18T12:05:43;11.18;;;9.93;;
69956;SDS011;57283;54.816;9.482;2022-08-18T12:08:32;10.27;;;9.27;;
69956;SDS011;57283;54.816;9.482;2022-08-18T12:11:23;10.85;;;9.75;;
69956;SDS011;57283;54.816;9.482;2022-08-18T12:14:01;10.43;;;9.30;;
69956;SDS011;57283;54.816;9.482;2022-08-18T12:16:51;10.70;;;9.30;;
69956;SDS011;57283;54.816;9.482;2022-08-18T12:19:20;11.20;;;9.38;;
69956;SDS011;57283;54.816;9.482;2022-08-18T12:21:50;12.57;;;9.70;;
69956;SDS011;57283;54.816;9.482;2022-08-18T12:24:20;13.88;;;10.13;;
69956;SDS011;57283;54.816;9.482;2022-08-18T12:26:51;13.77;;;9.70;;
69956;SDS011;57283;54.816;9.482;2022-08-18T12:29:21;11.70;;;9.63;;
69956;SDS011;57283;54.816;9.482;2022-08-18T12:31:57;12.45;;;9.98;;
69956;SDS011;57283;54.816;9.482;2022-08-18T12:34:25;12.00;;;9.52;;
69956;SDS011;57283;54.816;9.482;2022-08-18T12:36:56;14.02;;;10.60;;
69956;SDS011;57283;54.816;9.482;2022-08-18T12:39:26;13.87;;;10.03;;
69956;SDS011;57283;54.816;9.482;2022-08-18T12:41:55;13.00;;;10.35;;
69956;SDS011;57283;54.816;9.482;2022-08-18T12:44:24;13.40;;;9.65;;
69956;SDS011;57283;54.816;9.482;2022-08-18T12:46:53;13.43;;;10.18;;
69956;SDS011;57283;54.816;9.482;2022-08-18T12:49:23;11.77;;;9.85;;
69956;SDS011;57283;54.816;9.482;2022-08-18T12:51:52;11.57;;;10.20;;
69956;SDS011;57283;54.816;9.482;2022-08-18T12:54:21;12.10;;;9.98;;
69956;SDS011;57283;54.816;9.482;2022-08-18T12:56:51;12.70;;;10.10;;
69956;SDS011;57283;54.816;9.482;2022-08-18T12:59:21;14.80;;;9.85;;
69956;SDS011;57283;54.816;9.482;2022-08-18T13:01:49;11.27;;;9.93;;
69956;SDS011;57283;54.816;9.482;2022-08-18T13:04:25;9.93;;;8.90;;
69956;SDS011;57283;54.816;9.482;2022-08-18T13:06:53;10.02;;;8.85;;
69956;SDS011;57283;54.816;9.482;2022-08-18T13:09:27;13.48;;;10.07;;
69956;SDS011;57283;54.816;9.482;2022-08-18T13:12:17;13.43;;;9.80;;
69956;SDS011;57283;54.816;9.482;2022-08-18T13:14:45;12.75;;;9.13;;
69956;SDS011;57283;54.816;9.482;2022-08-18T13:17:13;12.63;;;10.00;;
69956;SDS011;57283;54.816;9.482;2022-08-18T13:19:59;12.40;;;9.17;;
69956;SDS011;57283;54.816;9.482;2022-08-18T13:22:27;12.03;;;9.57;;
69956;SDS011;57283;54.816;9.482;2022-08-18T13:24:58;11.57;;;9.50;;
69956;SDS011;57283;54.816;9.482;2022-08-18T13:27:25;12.30;;;10.18;;
69956;SDS011;57283;54.816;9.482;2022-08-18T13:30:01;11.13;;;9.70;;
69956;SDS011;57283;54.816;9.482;2022-08-18T13:32:48;13.07;;;10.57;;
69956;SDS011;57283;54.816;9.482;2022-08-18T13:35:32;11.97;;;10.37;;
69956;SDS011;57283;54.816;9.482;2022-08-18T13:38:09;13.37;;;9.23;;
69956;SDS011;57283;54.816;9.482;2022-08-18T13:40:44;10.88;;;9.38;;
69956;SDS011;57283;54.816;9.482;2022-08-18T13:43:13;12.07;;;9.50;;
69956;SDS011;57283;54.816;9.482;2022-08-18T13:45:43;12.35;;;9.95;;
69956;SDS011;57283;54.816;9.482;2022-08-18T13:48:18;12.63;;;10.32;;
69956;SDS011;57283;54.816;9.482;2022-08-18T13:50:46;11.20;;;10.10;;
69956;SDS011;57283;54.816;9.482;2022-08-18T13:53:18;12.63;;;10.53;;
69956;SDS011;57283;54.816;9.482;2022-08-18T13:55:47;12.30;;;9.93;;
69956;SDS011;57283;54.816;9.482;2022-08-18T13:58:15;12.77;;;10.43;;
69956;SDS011;57283;54.816;9.482;2022-08-18T14:00:46;13.45;;;10.75;;
69956;SDS011;57283;54.816;9.482;2022-08-18T14:03:14;13.05;;;10.93;;
69956;SDS011;57283;54.816;9.482;2022-08-18T14:06:03;12.07;;;10.83;;
69956;SDS011;57283;54.816;9.482;2022-08-18T14:08:32;11.88;;;10.32;;
69956;SDS011;57283;54.816;9.482;2022-08-18T14:11:01;13.57;;;9.93;;
69956;SDS011;57283;54.816;9.482;2022-08-18T14:13:29;12.90;;;9.98;;
69956;SDS011;57283;54.816;9.482;2022-08-18T14:16:09;11.73;;;9.70;;
69956;SDS011;57283;54.816;9.482;2022-08-18T14:18:44;12.77;;;9.77;;
69956;SDS011;57283;54.816;9.482;2022-08-18T14:21:38;11.52;;;10.05;;
69956;SDS011;57283;54.816;9.482;2022-08-18T14:24:24;11.65;;;9.98;;
69956;SDS011;57283;54.816;9.482;2022-08-18T14:27:14;13.90;;;10.75;;
69956;SDS011;57283;54.816;9.482;2022-08-18T14:29:42;12.82;;;10.55;;
69956;SDS011;57283;54.816;9.482;2022-08-18T14:32:13;11.50;;;9.97;;
69956;SDS011;57283;54.816;9.482;2022-08-18T14:34:54;14.80;;;10.27;;
69956;SDS011;57283;54.816;9.482;2022-08-18T14:37:28;13.13;;;11.07;;
69956;SDS011;57283;54.816;9.482;2022-08-18T14:39:59;11.32;;;10.13;;
69956;SDS011;57283;54.816;9.482;2022-08-18T14:42:27;16.20;;;10.63;;
69956;SDS011;57283;54.816;9.482;2022-08-18T14:45:14;13.90;;;9.90;;
69956;SDS011;57283;54.816;9.482;2022-08-18T14:48:00;11.43;;;10.02;;
69956;SDS011;57283;54.816;9.482;2022-08-18T14:50:33;12.10;;;10.82;;
69956;SDS011;57283;54.816;9.482;2022-08-18T14:53:02;11.57;;;9.90;;
69956;SDS011;57283;54.816;9.482;2022-08-18T14:55:29;13.18;;;9.98;;
69956;SDS011;57283;54.816;9.482;2022-08-18T14:57:57;13.30;;;9.60;;
69956;SDS011;57283;54.816;9.482;2022-08-18T15:00:25;11.35;;;9.27;;
69956;SDS011;57283;54.816;9.482;2022-08-18T15:02:53;14.13;;;9.93;;
69956;SDS011;57283;54.816;9.482;2022-08-18T15:05:25;12.32;;;9.77;;
69956;SDS011;57283;54.816;9.482;2022-08-18T15:07:59;12.55;;;10.25;;
69956;SDS011;57283;54.816;9.482;2022-08-18T15:10:30;11.70;;;9.70;;
69956;SDS011;57283;54.816;9.482;2022-08-18T15:12:58;12.32;;;9.98;;
69956;SDS011;57283;54.816;9.482;2022-08-18T15:15:27;12.93;;;10.07;;
69956;SDS011;57283;54.816;9.482;2022-08-18T15:18:15;13.65;;;10.20;;